<?xml version="1.0" encoding="UTF-8" standalone="no" ?>
<gpx xmlns="http://www.topografix.com/GPX/1/1" xmlns:xsi="http://www.w3.org/2001/XMLSchema-instance" xsi:schemaLocation="http://www.topografix.com/GPX/1/1 http://www.topografix.com/GPX/1/1/gpx.xsd" version="1.1" creator="VisuGPX - https://www.visugpx.com">
  <metadata>
    <name>Parcours voiture algarve 1</name>
    <desc><![CDATA[Parcours voiture algarve 1]]></desc>
  </metadata>
  <trk>
    <name><![CDATA[ACTIVE LOG164836]]></name>
    <trkseg>
      <trkpt lat="37.08971" lon="-8.25359">
        <ele>257.731</ele>
        <time>2011-08-05T14:48:35Z</time>
      </trkpt>
      <trkpt lat="37.0899" lon="-8.25374">
        <ele>214.761</ele>
        <time>2011-08-05T14:49:06Z</time>
      </trkpt>
      <trkpt lat="37.08994" lon="-8.25375">
        <ele>191.709</ele>
        <time>2011-08-05T14:50:53Z</time>
      </trkpt>
      <trkpt lat="37.08997" lon="-8.25376">
        <ele>191.463</ele>
        <time>2011-08-05T14:51:39Z</time>
      </trkpt>
      <trkpt lat="37.08999" lon="-8.25373">
        <ele>188.156</ele>
        <time>2011-08-05T14:52:34Z</time>
      </trkpt>
      <trkpt lat="37.09003" lon="-8.25375">
        <ele>186.96</ele>
        <time>2011-08-05T14:53:00Z</time>
      </trkpt>
      <trkpt lat="37.09" lon="-8.25372">
        <ele>187.269</ele>
        <time>2011-08-05T14:54:15Z</time>
      </trkpt>
      <trkpt lat="37.08996" lon="-8.25365">
        <ele>186.166</ele>
        <time>2011-08-05T14:54:21Z</time>
      </trkpt>
      <trkpt lat="37.08978" lon="-8.25355">
        <ele>183.943</ele>
        <time>2011-08-05T14:54:30Z</time>
      </trkpt>
      <trkpt lat="37.08971" lon="-8.25348">
        <ele>183.318</ele>
        <time>2011-08-05T14:54:43Z</time>
      </trkpt>
      <trkpt lat="37.08971" lon="-8.2535">
        <ele>178.472</ele>
        <time>2011-08-05T14:54:56Z</time>
      </trkpt>
      <trkpt lat="37.0897" lon="-8.25352">
        <ele>176.615</ele>
        <time>2011-08-05T14:55:20Z</time>
      </trkpt>
      <trkpt lat="37.08975" lon="-8.25349">
        <ele>175.003</ele>
        <time>2011-08-05T14:55:29Z</time>
      </trkpt>
      <trkpt lat="37.08974" lon="-8.25346">
        <ele>173.857</ele>
        <time>2011-08-05T14:55:33Z</time>
      </trkpt>
      <trkpt lat="37.08973" lon="-8.25346">
        <ele>173.713</ele>
        <time>2011-08-05T14:55:52Z</time>
      </trkpt>
      <trkpt lat="37.08975" lon="-8.25348">
        <ele>173.379</ele>
        <time>2011-08-05T14:55:55Z</time>
      </trkpt>
      <trkpt lat="37.0897" lon="-8.2536">
        <ele>172.921</ele>
        <time>2011-08-05T14:56:12Z</time>
      </trkpt>
      <trkpt lat="37.08975" lon="-8.25372">
        <ele>171.251</ele>
        <time>2011-08-05T14:56:32Z</time>
      </trkpt>
      <trkpt lat="37.08964" lon="-8.25377">
        <ele>170.536</ele>
        <time>2011-08-05T14:56:43Z</time>
      </trkpt>
      <trkpt lat="37.08959" lon="-8.25375">
        <ele>169.212</ele>
        <time>2011-08-05T14:56:48Z</time>
      </trkpt>
      <trkpt lat="37.08956" lon="-8.25372">
        <ele>168.079</ele>
        <time>2011-08-05T14:56:51Z</time>
      </trkpt>
      <trkpt lat="37.08947" lon="-8.25371">
        <ele>166.05</ele>
        <time>2011-08-05T14:57:03Z</time>
      </trkpt>
      <trkpt lat="37.08931" lon="-8.25364">
        <ele>166.422</ele>
        <time>2011-08-05T14:57:12Z</time>
      </trkpt>
      <trkpt lat="37.08924" lon="-8.25363">
        <ele>166.052</ele>
        <time>2011-08-05T14:57:22Z</time>
      </trkpt>
      <trkpt lat="37.0892" lon="-8.25359">
        <ele>166.006</ele>
        <time>2011-08-05T14:57:27Z</time>
      </trkpt>
      <trkpt lat="37.08906" lon="-8.25369">
        <ele>162.496</ele>
        <time>2011-08-05T14:57:34Z</time>
      </trkpt>
      <trkpt lat="37.089" lon="-8.25367">
        <ele>160.167</ele>
        <time>2011-08-05T14:57:45Z</time>
      </trkpt>
      <trkpt lat="37.08896" lon="-8.25363">
        <ele>159.336</ele>
        <time>2011-08-05T14:57:50Z</time>
      </trkpt>
      <trkpt lat="37.08888" lon="-8.25356">
        <ele>158.315</ele>
        <time>2011-08-05T14:57:56Z</time>
      </trkpt>
      <trkpt lat="37.08882" lon="-8.25353">
        <ele>158.225</ele>
        <time>2011-08-05T14:58:01Z</time>
      </trkpt>
      <trkpt lat="37.08876" lon="-8.25354">
        <ele>158.263</ele>
        <time>2011-08-05T14:58:15Z</time>
      </trkpt>
      <trkpt lat="37.08871" lon="-8.25359">
        <ele>159.148</ele>
        <time>2011-08-05T14:58:25Z</time>
      </trkpt>
      <trkpt lat="37.08869" lon="-8.25379">
        <ele>157.377</ele>
        <time>2011-08-05T14:58:41Z</time>
      </trkpt>
      <trkpt lat="37.0886" lon="-8.25397">
        <ele>157.125</ele>
        <time>2011-08-05T14:58:56Z</time>
      </trkpt>
      <trkpt lat="37.08851" lon="-8.25412">
        <ele>156.998</ele>
        <time>2011-08-05T14:59:08Z</time>
      </trkpt>
      <trkpt lat="37.08836" lon="-8.25426">
        <ele>156.787</ele>
        <time>2011-08-05T14:59:26Z</time>
      </trkpt>
      <trkpt lat="37.08826" lon="-8.25448">
        <ele>156.727</ele>
        <time>2011-08-05T14:59:44Z</time>
      </trkpt>
      <trkpt lat="37.08819" lon="-8.25477">
        <ele>156.196</ele>
        <time>2011-08-05T14:59:56Z</time>
      </trkpt>
      <trkpt lat="37.08835" lon="-8.2549">
        <ele>156.408</ele>
        <time>2011-08-05T15:00:07Z</time>
      </trkpt>
      <trkpt lat="37.0884" lon="-8.25511">
        <ele>158.84</ele>
        <time>2011-08-05T15:00:23Z</time>
      </trkpt>
      <trkpt lat="37.08842" lon="-8.25528">
        <ele>157.251</ele>
        <time>2011-08-05T15:00:35Z</time>
      </trkpt>
      <trkpt lat="37.08841" lon="-8.25534">
        <ele>157.792</ele>
        <time>2011-08-05T15:00:39Z</time>
      </trkpt>
      <trkpt lat="37.08841" lon="-8.25547">
        <ele>156.454</ele>
        <time>2011-08-05T15:00:47Z</time>
      </trkpt>
      <trkpt lat="37.0884" lon="-8.25555">
        <ele>151.074</ele>
        <time>2011-08-05T15:00:51Z</time>
      </trkpt>
      <trkpt lat="37.08842" lon="-8.25562">
        <ele>150.741</ele>
        <time>2011-08-05T15:00:55Z</time>
      </trkpt>
      <trkpt lat="37.08833" lon="-8.2558">
        <ele>127.566</ele>
        <time>2011-08-05T15:01:07Z</time>
      </trkpt>
      <trkpt lat="37.08831" lon="-8.25618">
        <ele>98.087</ele>
        <time>2011-08-05T15:01:30Z</time>
      </trkpt>
      <trkpt lat="37.08833" lon="-8.25636">
        <ele>92.084</ele>
        <time>2011-08-05T15:01:45Z</time>
      </trkpt>
      <trkpt lat="37.0884" lon="-8.25648">
        <ele>80.357</ele>
        <time>2011-08-05T15:01:58Z</time>
      </trkpt>
      <trkpt lat="37.08851" lon="-8.25653">
        <ele>69.714</ele>
        <time>2011-08-05T15:02:43Z</time>
      </trkpt>
      <trkpt lat="37.0885" lon="-8.25653">
        <ele>68.873</ele>
        <time>2011-08-05T15:02:54Z</time>
      </trkpt>
      <trkpt lat="37.08854" lon="-8.25665">
        <ele>69.708</ele>
        <time>2011-08-05T15:02:58Z</time>
      </trkpt>
      <trkpt lat="37.08854" lon="-8.25665">
        <ele>71.123</ele>
        <time>2011-08-05T15:03:02Z</time>
      </trkpt>
      <trkpt lat="37.08864" lon="-8.2564">
        <ele>75.662</ele>
        <time>2011-08-05T15:03:13Z</time>
      </trkpt>
      <trkpt lat="37.08864" lon="-8.2562">
        <ele>81.393</ele>
        <time>2011-08-05T15:03:28Z</time>
      </trkpt>
      <trkpt lat="37.08864" lon="-8.2562">
        <ele>85.493</ele>
        <time>2011-08-05T15:03:41Z</time>
      </trkpt>
      <trkpt lat="37.08847" lon="-8.25618">
        <ele>87.731</ele>
        <time>2011-08-05T15:03:47Z</time>
      </trkpt>
      <trkpt lat="37.08851" lon="-8.25618">
        <ele>88.482</ele>
        <time>2011-08-05T15:03:58Z</time>
      </trkpt>
      <trkpt lat="37.08857" lon="-8.25618">
        <ele>87.891</ele>
        <time>2011-08-05T15:04:01Z</time>
      </trkpt>
      <trkpt lat="37.08864" lon="-8.25629">
        <ele>83.754</ele>
        <time>2011-08-05T15:04:05Z</time>
      </trkpt>
      <trkpt lat="37.08871" lon="-8.257">
        <ele>75.394</ele>
        <time>2011-08-05T15:04:16Z</time>
      </trkpt>
      <trkpt lat="37.08871" lon="-8.25721">
        <ele>71.803</ele>
        <time>2011-08-05T15:04:26Z</time>
      </trkpt>
      <trkpt lat="37.0893" lon="-8.2573">
        <ele>67.348</ele>
        <time>2011-08-05T15:04:36Z</time>
      </trkpt>
      <trkpt lat="37.0896" lon="-8.25735">
        <ele>67.228</ele>
        <time>2011-08-05T15:04:44Z</time>
      </trkpt>
      <trkpt lat="37.08969" lon="-8.25737">
        <ele>67.301</ele>
        <time>2011-08-05T15:05:03Z</time>
      </trkpt>
      <trkpt lat="37.08998" lon="-8.2576">
        <ele>67.583</ele>
        <time>2011-08-05T15:05:09Z</time>
      </trkpt>
      <trkpt lat="37.09029" lon="-8.25888">
        <ele>71.882</ele>
        <time>2011-08-05T15:05:20Z</time>
      </trkpt>
      <trkpt lat="37.0904" lon="-8.26012">
        <ele>80.343</ele>
        <time>2011-08-05T15:05:30Z</time>
      </trkpt>
      <trkpt lat="37.09045" lon="-8.2604">
        <ele>81.605</ele>
        <time>2011-08-05T15:05:33Z</time>
      </trkpt>
      <trkpt lat="37.09053" lon="-8.2606">
        <ele>82.207</ele>
        <time>2011-08-05T15:05:38Z</time>
      </trkpt>
      <trkpt lat="37.0916" lon="-8.26119">
        <ele>87.903</ele>
        <time>2011-08-05T15:05:49Z</time>
      </trkpt>
      <trkpt lat="37.09184" lon="-8.26162">
        <ele>90.906</ele>
        <time>2011-08-05T15:05:54Z</time>
      </trkpt>
      <trkpt lat="37.092" lon="-8.26212">
        <ele>94.171</ele>
        <time>2011-08-05T15:05:59Z</time>
      </trkpt>
      <trkpt lat="37.09233" lon="-8.26264">
        <ele>97.711</ele>
        <time>2011-08-05T15:06:05Z</time>
      </trkpt>
      <trkpt lat="37.09242" lon="-8.26275">
        <ele>98.319</ele>
        <time>2011-08-05T15:06:08Z</time>
      </trkpt>
      <trkpt lat="37.09263" lon="-8.2634">
        <ele>99.235</ele>
        <time>2011-08-05T15:06:13Z</time>
      </trkpt>
      <trkpt lat="37.09275" lon="-8.26468">
        <ele>101.103</ele>
        <time>2011-08-05T15:06:25Z</time>
      </trkpt>
      <trkpt lat="37.09295" lon="-8.26611">
        <ele>104.282</ele>
        <time>2011-08-05T15:06:37Z</time>
      </trkpt>
      <trkpt lat="37.09329" lon="-8.26821">
        <ele>105</ele>
        <time>2011-08-05T15:06:54Z</time>
      </trkpt>
      <trkpt lat="37.09367" lon="-8.26931">
        <ele>106.207</ele>
        <time>2011-08-05T15:07:03Z</time>
      </trkpt>
      <trkpt lat="37.09399" lon="-8.26967">
        <ele>107.635</ele>
        <time>2011-08-05T15:07:08Z</time>
      </trkpt>
      <trkpt lat="37.09531" lon="-8.27036">
        <ele>109.438</ele>
        <time>2011-08-05T15:07:21Z</time>
      </trkpt>
      <trkpt lat="37.09572" lon="-8.27077">
        <ele>107.538</ele>
        <time>2011-08-05T15:07:25Z</time>
      </trkpt>
      <trkpt lat="37.0965" lon="-8.27106">
        <ele>101.437</ele>
        <time>2011-08-05T15:07:31Z</time>
      </trkpt>
      <trkpt lat="37.09709" lon="-8.27145">
        <ele>98.305</ele>
        <time>2011-08-05T15:07:36Z</time>
      </trkpt>
      <trkpt lat="37.09816" lon="-8.27143">
        <ele>97.317</ele>
        <time>2011-08-05T15:07:44Z</time>
      </trkpt>
      <trkpt lat="37.09934" lon="-8.27134">
        <ele>95.346</ele>
        <time>2011-08-05T15:07:54Z</time>
      </trkpt>
      <trkpt lat="37.09943" lon="-8.27136">
        <ele>95.147</ele>
        <time>2011-08-05T15:07:55Z</time>
      </trkpt>
      <trkpt lat="37.09963" lon="-8.27144">
        <ele>93.993</ele>
        <time>2011-08-05T15:07:58Z</time>
      </trkpt>
      <trkpt lat="37.09977" lon="-8.27158">
        <ele>92.793</ele>
        <time>2011-08-05T15:08:03Z</time>
      </trkpt>
      <trkpt lat="37.10003" lon="-8.27216">
        <ele>90.034</ele>
        <time>2011-08-05T15:08:12Z</time>
      </trkpt>
      <trkpt lat="37.10047" lon="-8.27347">
        <ele>88.071</ele>
        <time>2011-08-05T15:08:21Z</time>
      </trkpt>
      <trkpt lat="37.10139" lon="-8.27542">
        <ele>83.34</ele>
        <time>2011-08-05T15:08:34Z</time>
      </trkpt>
      <trkpt lat="37.10154" lon="-8.27569">
        <ele>82.717</ele>
        <time>2011-08-05T15:08:36Z</time>
      </trkpt>
      <trkpt lat="37.10195" lon="-8.27604">
        <ele>81.566</ele>
        <time>2011-08-05T15:08:40Z</time>
      </trkpt>
      <trkpt lat="37.10286" lon="-8.27702">
        <ele>77.129</ele>
        <time>2011-08-05T15:08:49Z</time>
      </trkpt>
      <trkpt lat="37.10394" lon="-8.2784">
        <ele>72.374</ele>
        <time>2011-08-05T15:09:01Z</time>
      </trkpt>
      <trkpt lat="37.10511" lon="-8.27907">
        <ele>70.471</ele>
        <time>2011-08-05T15:09:11Z</time>
      </trkpt>
      <trkpt lat="37.10702" lon="-8.28006">
        <ele>64.436</ele>
        <time>2011-08-05T15:09:26Z</time>
      </trkpt>
      <trkpt lat="37.1081" lon="-8.28029">
        <ele>61.59</ele>
        <time>2011-08-05T15:09:35Z</time>
      </trkpt>
      <trkpt lat="37.10958" lon="-8.28034">
        <ele>63.19</ele>
        <time>2011-08-05T15:09:47Z</time>
      </trkpt>
      <trkpt lat="37.10999" lon="-8.28061">
        <ele>66.431</ele>
        <time>2011-08-05T15:09:51Z</time>
      </trkpt>
      <trkpt lat="37.11142" lon="-8.282">
        <ele>75.564</ele>
        <time>2011-08-05T15:10:06Z</time>
      </trkpt>
      <trkpt lat="37.11318" lon="-8.28397">
        <ele>76.572</ele>
        <time>2011-08-05T15:10:23Z</time>
      </trkpt>
      <trkpt lat="37.1142" lon="-8.28522">
        <ele>77.602</ele>
        <time>2011-08-05T15:10:33Z</time>
      </trkpt>
      <trkpt lat="37.11517" lon="-8.28637">
        <ele>79.619</ele>
        <time>2011-08-05T15:10:43Z</time>
      </trkpt>
      <trkpt lat="37.11525" lon="-8.28649">
        <ele>79.267</ele>
        <time>2011-08-05T15:10:44Z</time>
      </trkpt>
      <trkpt lat="37.1158" lon="-8.28687">
        <ele>76.749</ele>
        <time>2011-08-05T15:10:49Z</time>
      </trkpt>
      <trkpt lat="37.11731" lon="-8.28745">
        <ele>67.061</ele>
        <time>2011-08-05T15:11:00Z</time>
      </trkpt>
      <trkpt lat="37.11911" lon="-8.28831">
        <ele>63.074</ele>
        <time>2011-08-05T15:11:13Z</time>
      </trkpt>
      <trkpt lat="37.11938" lon="-8.28842">
        <ele>62.523</ele>
        <time>2011-08-05T15:11:15Z</time>
      </trkpt>
      <trkpt lat="37.12012" lon="-8.28925">
        <ele>61.845</ele>
        <time>2011-08-05T15:11:22Z</time>
      </trkpt>
      <trkpt lat="37.12176" lon="-8.29169">
        <ele>67.546</ele>
        <time>2011-08-05T15:11:39Z</time>
      </trkpt>
      <trkpt lat="37.1227" lon="-8.29355">
        <ele>76.903</ele>
        <time>2011-08-05T15:11:53Z</time>
      </trkpt>
      <trkpt lat="37.12323" lon="-8.29456">
        <ele>79.135</ele>
        <time>2011-08-05T15:12:01Z</time>
      </trkpt>
      <trkpt lat="37.12358" lon="-8.29494">
        <ele>78.768</ele>
        <time>2011-08-05T15:12:05Z</time>
      </trkpt>
      <trkpt lat="37.12405" lon="-8.29542">
        <ele>73.347</ele>
        <time>2011-08-05T15:12:10Z</time>
      </trkpt>
      <trkpt lat="37.12451" lon="-8.29674">
        <ele>66.149</ele>
        <time>2011-08-05T15:12:19Z</time>
      </trkpt>
      <trkpt lat="37.12463" lon="-8.29707">
        <ele>65.569</ele>
        <time>2011-08-05T15:12:23Z</time>
      </trkpt>
      <trkpt lat="37.12484" lon="-8.29713">
        <ele>66.524</ele>
        <time>2011-08-05T15:12:25Z</time>
      </trkpt>
      <trkpt lat="37.12467" lon="-8.29745">
        <ele>65.034</ele>
        <time>2011-08-05T15:12:29Z</time>
      </trkpt>
      <trkpt lat="37.1246" lon="-8.29869">
        <ele>60.357</ele>
        <time>2011-08-05T15:12:40Z</time>
      </trkpt>
      <trkpt lat="37.12444" lon="-8.29985">
        <ele>58.898</ele>
        <time>2011-08-05T15:12:49Z</time>
      </trkpt>
      <trkpt lat="37.1245" lon="-8.30028">
        <ele>58.753</ele>
        <time>2011-08-05T15:12:53Z</time>
      </trkpt>
      <trkpt lat="37.12456" lon="-8.30062">
        <ele>57.828</ele>
        <time>2011-08-05T15:12:56Z</time>
      </trkpt>
      <trkpt lat="37.125" lon="-8.3013">
        <ele>52.982</ele>
        <time>2011-08-05T15:13:03Z</time>
      </trkpt>
      <trkpt lat="37.12537" lon="-8.3015">
        <ele>50.204</ele>
        <time>2011-08-05T15:13:08Z</time>
      </trkpt>
      <trkpt lat="37.12552" lon="-8.30153">
        <ele>50.403</ele>
        <time>2011-08-05T15:13:16Z</time>
      </trkpt>
      <trkpt lat="37.12563" lon="-8.30154">
        <ele>51.482</ele>
        <time>2011-08-05T15:13:33Z</time>
      </trkpt>
      <trkpt lat="37.12623" lon="-8.30132">
        <ele>52.046</ele>
        <time>2011-08-05T15:13:42Z</time>
      </trkpt>
      <trkpt lat="37.12705" lon="-8.30102">
        <ele>51.754</ele>
        <time>2011-08-05T15:13:53Z</time>
      </trkpt>
      <trkpt lat="37.12774" lon="-8.30099">
        <ele>54.051</ele>
        <time>2011-08-05T15:14:02Z</time>
      </trkpt>
      <trkpt lat="37.12782" lon="-8.30099">
        <ele>55.505</ele>
        <time>2011-08-05T15:14:10Z</time>
      </trkpt>
      <trkpt lat="37.12799" lon="-8.30084">
        <ele>55.59</ele>
        <time>2011-08-05T15:14:21Z</time>
      </trkpt>
      <trkpt lat="37.12825" lon="-8.30089">
        <ele>54.676</ele>
        <time>2011-08-05T15:14:27Z</time>
      </trkpt>
      <trkpt lat="37.12821" lon="-8.30107">
        <ele>53.763</ele>
        <time>2011-08-05T15:14:30Z</time>
      </trkpt>
      <trkpt lat="37.12813" lon="-8.30125">
        <ele>52.79</ele>
        <time>2011-08-05T15:14:32Z</time>
      </trkpt>
      <trkpt lat="37.12819" lon="-8.30256">
        <ele>49.804</ele>
        <time>2011-08-05T15:14:43Z</time>
      </trkpt>
      <trkpt lat="37.1283" lon="-8.30523">
        <ele>44.429</ele>
        <time>2011-08-05T15:14:59Z</time>
      </trkpt>
      <trkpt lat="37.12816" lon="-8.3069">
        <ele>42.464</ele>
        <time>2011-08-05T15:15:08Z</time>
      </trkpt>
      <trkpt lat="37.12758" lon="-8.30985">
        <ele>41.065</ele>
        <time>2011-08-05T15:15:22Z</time>
      </trkpt>
      <trkpt lat="37.12737" lon="-8.31214">
        <ele>37.621</ele>
        <time>2011-08-05T15:15:32Z</time>
      </trkpt>
      <trkpt lat="37.12755" lon="-8.3141">
        <ele>33.5</ele>
        <time>2011-08-05T15:15:41Z</time>
      </trkpt>
      <trkpt lat="37.12761" lon="-8.31498">
        <ele>31.816</ele>
        <time>2011-08-05T15:15:49Z</time>
      </trkpt>
      <trkpt lat="37.12769" lon="-8.31584">
        <ele>33.787</ele>
        <time>2011-08-05T15:15:52Z</time>
      </trkpt>
      <trkpt lat="37.12734" lon="-8.31601">
        <ele>35.119</ele>
        <time>2011-08-05T15:15:56Z</time>
      </trkpt>
      <trkpt lat="37.12598" lon="-8.3169">
        <ele>32.873</ele>
        <time>2011-08-05T15:16:06Z</time>
      </trkpt>
      <trkpt lat="37.12517" lon="-8.31746">
        <ele>31.613</ele>
        <time>2011-08-05T15:16:11Z</time>
      </trkpt>
      <trkpt lat="37.12444" lon="-8.31854">
        <ele>35.316</ele>
        <time>2011-08-05T15:16:17Z</time>
      </trkpt>
      <trkpt lat="37.12437" lon="-8.319">
        <ele>36.531</ele>
        <time>2011-08-05T15:16:19Z</time>
      </trkpt>
      <trkpt lat="37.12427" lon="-8.32241">
        <ele>50.37</ele>
        <time>2011-08-05T15:16:33Z</time>
      </trkpt>
      <trkpt lat="37.12423" lon="-8.3261">
        <ele>52.901</ele>
        <time>2011-08-05T15:16:48Z</time>
      </trkpt>
      <trkpt lat="37.12417" lon="-8.33055">
        <ele>53.559</ele>
        <time>2011-08-05T15:17:06Z</time>
      </trkpt>
      <trkpt lat="37.12413" lon="-8.33297">
        <ele>52.047</ele>
        <time>2011-08-05T15:17:18Z</time>
      </trkpt>
      <trkpt lat="37.12413" lon="-8.33462">
        <ele>52.405</ele>
        <time>2011-08-05T15:17:29Z</time>
      </trkpt>
      <trkpt lat="37.12409" lon="-8.33699">
        <ele>54.437</ele>
        <time>2011-08-05T15:17:46Z</time>
      </trkpt>
      <trkpt lat="37.12378" lon="-8.33879">
        <ele>51.306</ele>
        <time>2011-08-05T15:17:58Z</time>
      </trkpt>
      <trkpt lat="37.12328" lon="-8.34176">
        <ele>44.809</ele>
        <time>2011-08-05T15:18:15Z</time>
      </trkpt>
      <trkpt lat="37.12356" lon="-8.3433">
        <ele>37.179</ele>
        <time>2011-08-05T15:18:23Z</time>
      </trkpt>
      <trkpt lat="37.12425" lon="-8.34443">
        <ele>29.563</ele>
        <time>2011-08-05T15:18:30Z</time>
      </trkpt>
      <trkpt lat="37.12547" lon="-8.34545">
        <ele>21.699</ele>
        <time>2011-08-05T15:18:39Z</time>
      </trkpt>
      <trkpt lat="37.12614" lon="-8.34585">
        <ele>21.836</ele>
        <time>2011-08-05T15:18:45Z</time>
      </trkpt>
      <trkpt lat="37.12669" lon="-8.34611">
        <ele>21.226</ele>
        <time>2011-08-05T15:18:52Z</time>
      </trkpt>
      <trkpt lat="37.12688" lon="-8.34617">
        <ele>21.19</ele>
        <time>2011-08-05T15:18:54Z</time>
      </trkpt>
      <trkpt lat="37.12854" lon="-8.3466">
        <ele>23.746</ele>
        <time>2011-08-05T15:19:09Z</time>
      </trkpt>
      <trkpt lat="37.12995" lon="-8.34744">
        <ele>28.82</ele>
        <time>2011-08-05T15:19:22Z</time>
      </trkpt>
      <trkpt lat="37.13093" lon="-8.34806">
        <ele>35.282</ele>
        <time>2011-08-05T15:19:32Z</time>
      </trkpt>
      <trkpt lat="37.13106" lon="-8.34809">
        <ele>37.159</ele>
        <time>2011-08-05T15:19:34Z</time>
      </trkpt>
      <trkpt lat="37.13111" lon="-8.34862">
        <ele>38.67</ele>
        <time>2011-08-05T15:19:39Z</time>
      </trkpt>
      <trkpt lat="37.13158" lon="-8.35005">
        <ele>44.531</ele>
        <time>2011-08-05T15:19:49Z</time>
      </trkpt>
      <trkpt lat="37.13198" lon="-8.35166">
        <ele>48.018</ele>
        <time>2011-08-05T15:19:58Z</time>
      </trkpt>
      <trkpt lat="37.1324" lon="-8.35408">
        <ele>56.668</ele>
        <time>2011-08-05T15:20:11Z</time>
      </trkpt>
      <trkpt lat="37.13276" lon="-8.35611">
        <ele>57.37</ele>
        <time>2011-08-05T15:20:25Z</time>
      </trkpt>
      <trkpt lat="37.13309" lon="-8.35767">
        <ele>51.18</ele>
        <time>2011-08-05T15:20:37Z</time>
      </trkpt>
      <trkpt lat="37.13333" lon="-8.35815">
        <ele>49.954</ele>
        <time>2011-08-05T15:20:44Z</time>
      </trkpt>
      <trkpt lat="37.13354" lon="-8.35818">
        <ele>49.606</ele>
        <time>2011-08-05T15:20:47Z</time>
      </trkpt>
      <trkpt lat="37.13379" lon="-8.35883">
        <ele>49.235</ele>
        <time>2011-08-05T15:20:53Z</time>
      </trkpt>
      <trkpt lat="37.13363" lon="-8.35916">
        <ele>46.625</ele>
        <time>2011-08-05T15:20:56Z</time>
      </trkpt>
      <trkpt lat="37.1335" lon="-8.35986">
        <ele>45.499</ele>
        <time>2011-08-05T15:21:01Z</time>
      </trkpt>
      <trkpt lat="37.13385" lon="-8.36204">
        <ele>50.866</ele>
        <time>2011-08-05T15:21:14Z</time>
      </trkpt>
      <trkpt lat="37.13407" lon="-8.3633">
        <ele>52.846</ele>
        <time>2011-08-05T15:21:24Z</time>
      </trkpt>
      <trkpt lat="37.13438" lon="-8.36508">
        <ele>61.188</ele>
        <time>2011-08-05T15:21:37Z</time>
      </trkpt>
      <trkpt lat="37.13473" lon="-8.36706">
        <ele>57.601</ele>
        <time>2011-08-05T15:21:51Z</time>
      </trkpt>
      <trkpt lat="37.13509" lon="-8.36899">
        <ele>51.442</ele>
        <time>2011-08-05T15:22:02Z</time>
      </trkpt>
      <trkpt lat="37.13559" lon="-8.37231">
        <ele>43.717</ele>
        <time>2011-08-05T15:22:17Z</time>
      </trkpt>
      <trkpt lat="37.13543" lon="-8.37409">
        <ele>43.141</ele>
        <time>2011-08-05T15:22:24Z</time>
      </trkpt>
      <trkpt lat="37.1348" lon="-8.37661">
        <ele>51.382</ele>
        <time>2011-08-05T15:22:34Z</time>
      </trkpt>
      <trkpt lat="37.13489" lon="-8.37832">
        <ele>56.936</ele>
        <time>2011-08-05T15:22:41Z</time>
      </trkpt>
      <trkpt lat="37.13535" lon="-8.38252">
        <ele>65.802</ele>
        <time>2011-08-05T15:22:58Z</time>
      </trkpt>
      <trkpt lat="37.13559" lon="-8.38505">
        <ele>73.364</ele>
        <time>2011-08-05T15:23:08Z</time>
      </trkpt>
      <trkpt lat="37.1355" lon="-8.38602">
        <ele>75.701</ele>
        <time>2011-08-05T15:23:12Z</time>
      </trkpt>
      <trkpt lat="37.13465" lon="-8.38978">
        <ele>71.706</ele>
        <time>2011-08-05T15:23:27Z</time>
      </trkpt>
      <trkpt lat="37.13436" lon="-8.39069">
        <ele>70.524</ele>
        <time>2011-08-05T15:23:31Z</time>
      </trkpt>
      <trkpt lat="37.13383" lon="-8.39146">
        <ele>67.543</ele>
        <time>2011-08-05T15:23:35Z</time>
      </trkpt>
      <trkpt lat="37.1315" lon="-8.39422">
        <ele>66.048</ele>
        <time>2011-08-05T15:23:50Z</time>
      </trkpt>
      <trkpt lat="37.12938" lon="-8.39665">
        <ele>67.052</ele>
        <time>2011-08-05T15:24:04Z</time>
      </trkpt>
      <trkpt lat="37.12741" lon="-8.39895">
        <ele>77.913</ele>
        <time>2011-08-05T15:24:18Z</time>
      </trkpt>
      <trkpt lat="37.12704" lon="-8.39991">
        <ele>80.654</ele>
        <time>2011-08-05T15:24:23Z</time>
      </trkpt>
      <trkpt lat="37.12679" lon="-8.4015">
        <ele>87.607</ele>
        <time>2011-08-05T15:24:32Z</time>
      </trkpt>
      <trkpt lat="37.12689" lon="-8.40189">
        <ele>88.476</ele>
        <time>2011-08-05T15:24:35Z</time>
      </trkpt>
      <trkpt lat="37.12668" lon="-8.40237">
        <ele>91.492</ele>
        <time>2011-08-05T15:24:40Z</time>
      </trkpt>
      <trkpt lat="37.12644" lon="-8.40414">
        <ele>92.961</ele>
        <time>2011-08-05T15:24:54Z</time>
      </trkpt>
      <trkpt lat="37.12626" lon="-8.40561">
        <ele>91.822</ele>
        <time>2011-08-05T15:25:03Z</time>
      </trkpt>
      <trkpt lat="37.12634" lon="-8.40741">
        <ele>91.255</ele>
        <time>2011-08-05T15:25:12Z</time>
      </trkpt>
      <trkpt lat="37.12672" lon="-8.4107">
        <ele>89.279</ele>
        <time>2011-08-05T15:25:28Z</time>
      </trkpt>
      <trkpt lat="37.12684" lon="-8.41283">
        <ele>94.544</ele>
        <time>2011-08-05T15:25:38Z</time>
      </trkpt>
      <trkpt lat="37.12684" lon="-8.41363">
        <ele>95.584</ele>
        <time>2011-08-05T15:25:42Z</time>
      </trkpt>
      <trkpt lat="37.12719" lon="-8.41451">
        <ele>96.489</ele>
        <time>2011-08-05T15:25:47Z</time>
      </trkpt>
      <trkpt lat="37.12835" lon="-8.41661">
        <ele>94.942</ele>
        <time>2011-08-05T15:25:59Z</time>
      </trkpt>
      <trkpt lat="37.12849" lon="-8.41779">
        <ele>90.793</ele>
        <time>2011-08-05T15:26:05Z</time>
      </trkpt>
      <trkpt lat="37.12837" lon="-8.41913">
        <ele>86.465</ele>
        <time>2011-08-05T15:26:13Z</time>
      </trkpt>
      <trkpt lat="37.12828" lon="-8.42021">
        <ele>84.2</ele>
        <time>2011-08-05T15:26:23Z</time>
      </trkpt>
      <trkpt lat="37.12824" lon="-8.4206">
        <ele>82.902</ele>
        <time>2011-08-05T15:26:33Z</time>
      </trkpt>
      <trkpt lat="37.1282" lon="-8.42109">
        <ele>81.176</ele>
        <time>2011-08-05T15:26:41Z</time>
      </trkpt>
      <trkpt lat="37.12809" lon="-8.42246">
        <ele>75.445</ele>
        <time>2011-08-05T15:26:52Z</time>
      </trkpt>
      <trkpt lat="37.12802" lon="-8.42335">
        <ele>71.85</ele>
        <time>2011-08-05T15:26:59Z</time>
      </trkpt>
      <trkpt lat="37.12802" lon="-8.42335">
        <ele>69.577</ele>
        <time>2011-08-05T15:27:15Z</time>
      </trkpt>
      <trkpt lat="37.12802" lon="-8.42335">
        <ele>69.546</ele>
        <time>2011-08-05T15:27:16Z</time>
      </trkpt>
      <trkpt lat="37.12796" lon="-8.42399">
        <ele>66.67</ele>
        <time>2011-08-05T15:27:24Z</time>
      </trkpt>
      <trkpt lat="37.12785" lon="-8.42518">
        <ele>62.969</ele>
        <time>2011-08-05T15:27:31Z</time>
      </trkpt>
      <trkpt lat="37.12762" lon="-8.42768">
        <ele>61.325</ele>
        <time>2011-08-05T15:27:42Z</time>
      </trkpt>
      <trkpt lat="37.12745" lon="-8.43084">
        <ele>57.66</ele>
        <time>2011-08-05T15:27:55Z</time>
      </trkpt>
      <trkpt lat="37.12803" lon="-8.43314">
        <ele>53.884</ele>
        <time>2011-08-05T15:28:05Z</time>
      </trkpt>
      <trkpt lat="37.12896" lon="-8.43655">
        <ele>53.844</ele>
        <time>2011-08-05T15:28:20Z</time>
      </trkpt>
      <trkpt lat="37.1291" lon="-8.4384">
        <ele>53.578</ele>
        <time>2011-08-05T15:28:28Z</time>
      </trkpt>
      <trkpt lat="37.1298" lon="-8.44087">
        <ele>52.198</ele>
        <time>2011-08-05T15:28:40Z</time>
      </trkpt>
      <trkpt lat="37.13043" lon="-8.4431">
        <ele>56.847</ele>
        <time>2011-08-05T15:28:53Z</time>
      </trkpt>
      <trkpt lat="37.13086" lon="-8.44488">
        <ele>52.207</ele>
        <time>2011-08-05T15:29:05Z</time>
      </trkpt>
      <trkpt lat="37.13124" lon="-8.44628">
        <ele>49.902</ele>
        <time>2011-08-05T15:29:17Z</time>
      </trkpt>
      <trkpt lat="37.13135" lon="-8.44657">
        <ele>49.821</ele>
        <time>2011-08-05T15:29:24Z</time>
      </trkpt>
      <trkpt lat="37.13147" lon="-8.44688">
        <ele>49.183</ele>
        <time>2011-08-05T15:29:53Z</time>
      </trkpt>
      <trkpt lat="37.13175" lon="-8.44781">
        <ele>47.669</ele>
        <time>2011-08-05T15:30:05Z</time>
      </trkpt>
      <trkpt lat="37.13192" lon="-8.44898">
        <ele>50.564</ele>
        <time>2011-08-05T15:30:18Z</time>
      </trkpt>
      <trkpt lat="37.13213" lon="-8.45027">
        <ele>51.912</ele>
        <time>2011-08-05T15:30:31Z</time>
      </trkpt>
      <trkpt lat="37.13235" lon="-8.45168">
        <ele>50.341</ele>
        <time>2011-08-05T15:30:42Z</time>
      </trkpt>
      <trkpt lat="37.13253" lon="-8.45284">
        <ele>50.457</ele>
        <time>2011-08-05T15:30:51Z</time>
      </trkpt>
      <trkpt lat="37.13274" lon="-8.4545">
        <ele>53.371</ele>
        <time>2011-08-05T15:31:00Z</time>
      </trkpt>
      <trkpt lat="37.13323" lon="-8.45626">
        <ele>58.342</ele>
        <time>2011-08-05T15:31:09Z</time>
      </trkpt>
      <trkpt lat="37.13421" lon="-8.45806">
        <ele>64.754</ele>
        <time>2011-08-05T15:31:20Z</time>
      </trkpt>
      <trkpt lat="37.13476" lon="-8.45904">
        <ele>62.965</ele>
        <time>2011-08-05T15:31:28Z</time>
      </trkpt>
      <trkpt lat="37.13506" lon="-8.45908">
        <ele>62.766</ele>
        <time>2011-08-05T15:31:32Z</time>
      </trkpt>
      <trkpt lat="37.13506" lon="-8.45959">
        <ele>61.785</ele>
        <time>2011-08-05T15:31:36Z</time>
      </trkpt>
      <trkpt lat="37.13595" lon="-8.46107">
        <ele>57.706</ele>
        <time>2011-08-05T15:31:46Z</time>
      </trkpt>
      <trkpt lat="37.13725" lon="-8.46355">
        <ele>56.766</ele>
        <time>2011-08-05T15:31:58Z</time>
      </trkpt>
      <trkpt lat="37.13856" lon="-8.46663">
        <ele>62.353</ele>
        <time>2011-08-05T15:32:12Z</time>
      </trkpt>
      <trkpt lat="37.13993" lon="-8.47012">
        <ele>64.704</ele>
        <time>2011-08-05T15:32:27Z</time>
      </trkpt>
      <trkpt lat="37.14171" lon="-8.47388">
        <ele>52.782</ele>
        <time>2011-08-05T15:32:43Z</time>
      </trkpt>
      <trkpt lat="37.14312" lon="-8.47582">
        <ele>44.392</ele>
        <time>2011-08-05T15:32:53Z</time>
      </trkpt>
      <trkpt lat="37.14481" lon="-8.47709">
        <ele>41.202</ele>
        <time>2011-08-05T15:33:03Z</time>
      </trkpt>
      <trkpt lat="37.14711" lon="-8.47842">
        <ele>38.064</ele>
        <time>2011-08-05T15:33:16Z</time>
      </trkpt>
      <trkpt lat="37.14911" lon="-8.47965">
        <ele>31.476</ele>
        <time>2011-08-05T15:33:27Z</time>
      </trkpt>
      <trkpt lat="37.15037" lon="-8.48101">
        <ele>30.495</ele>
        <time>2011-08-05T15:33:36Z</time>
      </trkpt>
      <trkpt lat="37.15135" lon="-8.48259">
        <ele>32.397</ele>
        <time>2011-08-05T15:33:46Z</time>
      </trkpt>
      <trkpt lat="37.15205" lon="-8.48448">
        <ele>34.596</ele>
        <time>2011-08-05T15:33:56Z</time>
      </trkpt>
      <trkpt lat="37.15271" lon="-8.48712">
        <ele>36.155</ele>
        <time>2011-08-05T15:34:07Z</time>
      </trkpt>
      <trkpt lat="37.15327" lon="-8.49034">
        <ele>32.513</ele>
        <time>2011-08-05T15:34:20Z</time>
      </trkpt>
      <trkpt lat="37.15311" lon="-8.49243">
        <ele>25.239</ele>
        <time>2011-08-05T15:34:28Z</time>
      </trkpt>
      <trkpt lat="37.15276" lon="-8.49419">
        <ele>17.703</ele>
        <time>2011-08-05T15:34:35Z</time>
      </trkpt>
      <trkpt lat="37.15097" lon="-8.49839">
        <ele>12.713</ele>
        <time>2011-08-05T15:34:52Z</time>
      </trkpt>
      <trkpt lat="37.15096" lon="-8.49996">
        <ele>13.547</ele>
        <time>2011-08-05T15:34:58Z</time>
      </trkpt>
      <trkpt lat="37.15116" lon="-8.50298">
        <ele>16.692</ele>
        <time>2011-08-05T15:35:11Z</time>
      </trkpt>
      <trkpt lat="37.15146" lon="-8.50677">
        <ele>21.706</ele>
        <time>2011-08-05T15:35:28Z</time>
      </trkpt>
      <trkpt lat="37.15173" lon="-8.51018">
        <ele>17.523</ele>
        <time>2011-08-05T15:35:43Z</time>
      </trkpt>
      <trkpt lat="37.15197" lon="-8.51304">
        <ele>16.093</ele>
        <time>2011-08-05T15:35:56Z</time>
      </trkpt>
      <trkpt lat="37.15229" lon="-8.51707">
        <ele>17.523</ele>
        <time>2011-08-05T15:36:12Z</time>
      </trkpt>
      <trkpt lat="37.15286" lon="-8.52174">
        <ele>18.036</ele>
        <time>2011-08-05T15:36:30Z</time>
      </trkpt>
      <trkpt lat="37.15359" lon="-8.52603">
        <ele>21.978</ele>
        <time>2011-08-05T15:36:47Z</time>
      </trkpt>
      <trkpt lat="37.15475" lon="-8.53117">
        <ele>35.638</ele>
        <time>2011-08-05T15:37:08Z</time>
      </trkpt>
      <trkpt lat="37.15551" lon="-8.53422">
        <ele>38.518</ele>
        <time>2011-08-05T15:37:21Z</time>
      </trkpt>
      <trkpt lat="37.15619" lon="-8.53711">
        <ele>39.365</ele>
        <time>2011-08-05T15:37:34Z</time>
      </trkpt>
      <trkpt lat="37.15648" lon="-8.53807">
        <ele>40.583</ele>
        <time>2011-08-05T15:37:40Z</time>
      </trkpt>
      <trkpt lat="37.15689" lon="-8.53835">
        <ele>37.708</ele>
        <time>2011-08-05T15:37:45Z</time>
      </trkpt>
      <trkpt lat="37.15722" lon="-8.538">
        <ele>35.168</ele>
        <time>2011-08-05T15:37:50Z</time>
      </trkpt>
      <trkpt lat="37.15714" lon="-8.53748">
        <ele>32.93</ele>
        <time>2011-08-05T15:37:54Z</time>
      </trkpt>
      <trkpt lat="37.1567" lon="-8.53738">
        <ele>35.553</ele>
        <time>2011-08-05T15:37:58Z</time>
      </trkpt>
      <trkpt lat="37.15658" lon="-8.53741">
        <ele>35.418</ele>
        <time>2011-08-05T15:37:59Z</time>
      </trkpt>
      <trkpt lat="37.15524" lon="-8.53788">
        <ele>34.925</ele>
        <time>2011-08-05T15:38:08Z</time>
      </trkpt>
      <trkpt lat="37.15416" lon="-8.5381">
        <ele>32.46</ele>
        <time>2011-08-05T15:38:16Z</time>
      </trkpt>
      <trkpt lat="37.15387" lon="-8.53823">
        <ele>32.315</ele>
        <time>2011-08-05T15:38:22Z</time>
      </trkpt>
      <trkpt lat="37.15383" lon="-8.53831">
        <ele>32.384</ele>
        <time>2011-08-05T15:38:24Z</time>
      </trkpt>
      <trkpt lat="37.15362" lon="-8.53835">
        <ele>32.441</ele>
        <time>2011-08-05T15:38:28Z</time>
      </trkpt>
      <trkpt lat="37.15264" lon="-8.53858">
        <ele>30.869</ele>
        <time>2011-08-05T15:38:37Z</time>
      </trkpt>
      <trkpt lat="37.15101" lon="-8.53933">
        <ele>24.194</ele>
        <time>2011-08-05T15:38:49Z</time>
      </trkpt>
      <trkpt lat="37.14917" lon="-8.54003">
        <ele>22.427</ele>
        <time>2011-08-05T15:39:02Z</time>
      </trkpt>
      <trkpt lat="37.14828" lon="-8.54039">
        <ele>22.944</ele>
        <time>2011-08-05T15:39:10Z</time>
      </trkpt>
      <trkpt lat="37.14727" lon="-8.54123">
        <ele>25.033</ele>
        <time>2011-08-05T15:39:21Z</time>
      </trkpt>
      <trkpt lat="37.14651" lon="-8.54197">
        <ele>22.347</ele>
        <time>2011-08-05T15:39:24Z</time>
      </trkpt>
      <trkpt lat="37.14643" lon="-8.54204">
        <ele>21.531</ele>
        <time>2011-08-05T15:39:25Z</time>
      </trkpt>
      <trkpt lat="37.14539" lon="-8.5429">
        <ele>22.281</ele>
        <time>2011-08-05T15:39:32Z</time>
      </trkpt>
      <trkpt lat="37.14378" lon="-8.54414">
        <ele>26.275</ele>
        <time>2011-08-05T15:39:44Z</time>
      </trkpt>
      <trkpt lat="37.14261" lon="-8.54511">
        <ele>29.38</ele>
        <time>2011-08-05T15:39:54Z</time>
      </trkpt>
      <trkpt lat="37.1425" lon="-8.54524">
        <ele>27.551</ele>
        <time>2011-08-05T15:40:00Z</time>
      </trkpt>
      <trkpt lat="37.14241" lon="-8.54545">
        <ele>25.152</ele>
        <time>2011-08-05T15:40:13Z</time>
      </trkpt>
      <trkpt lat="37.14259" lon="-8.54543">
        <ele>24.552</ele>
        <time>2011-08-05T15:41:24Z</time>
      </trkpt>
      <trkpt lat="37.14246" lon="-8.54565">
        <ele>24.66</ele>
        <time>2011-08-05T15:41:28Z</time>
      </trkpt>
      <trkpt lat="37.14236" lon="-8.54586">
        <ele>24.294</ele>
        <time>2011-08-05T15:41:36Z</time>
      </trkpt>
      <trkpt lat="37.14233" lon="-8.5459">
        <ele>24.616</ele>
        <time>2011-08-05T15:42:31Z</time>
      </trkpt>
      <trkpt lat="37.14203" lon="-8.54558">
        <ele>24.918</ele>
        <time>2011-08-05T15:42:39Z</time>
      </trkpt>
      <trkpt lat="37.14202" lon="-8.54544">
        <ele>25.04</ele>
        <time>2011-08-05T15:42:41Z</time>
      </trkpt>
      <trkpt lat="37.14188" lon="-8.54508">
        <ele>25.258</ele>
        <time>2011-08-05T15:42:48Z</time>
      </trkpt>
      <trkpt lat="37.1413" lon="-8.54478">
        <ele>26.511</ele>
        <time>2011-08-05T15:43:02Z</time>
      </trkpt>
      <trkpt lat="37.14124" lon="-8.54475">
        <ele>26.598</ele>
        <time>2011-08-05T15:43:03Z</time>
      </trkpt>
      <trkpt lat="37.14106" lon="-8.54465">
        <ele>26.837</ele>
        <time>2011-08-05T15:43:07Z</time>
      </trkpt>
      <trkpt lat="37.1408" lon="-8.54424">
        <ele>27.098</ele>
        <time>2011-08-05T15:43:12Z</time>
      </trkpt>
      <trkpt lat="37.14085" lon="-8.54401">
        <ele>26.999</ele>
        <time>2011-08-05T15:43:16Z</time>
      </trkpt>
      <trkpt lat="37.14088" lon="-8.54388">
        <ele>26.678</ele>
        <time>2011-08-05T15:43:25Z</time>
      </trkpt>
      <trkpt lat="37.14088" lon="-8.54388">
        <ele>26.319</ele>
        <time>2011-08-05T15:43:41Z</time>
      </trkpt>
      <trkpt lat="37.14098" lon="-8.54342">
        <ele>26.488</ele>
        <time>2011-08-05T15:43:51Z</time>
      </trkpt>
      <trkpt lat="37.14104" lon="-8.54238">
        <ele>27.693</ele>
        <time>2011-08-05T15:44:02Z</time>
      </trkpt>
      <trkpt lat="37.14104" lon="-8.54096">
        <ele>27.622</ele>
        <time>2011-08-05T15:44:16Z</time>
      </trkpt>
      <trkpt lat="37.14104" lon="-8.54089">
        <ele>27.304</ele>
        <time>2011-08-05T15:44:17Z</time>
      </trkpt>
      <trkpt lat="37.14104" lon="-8.54066">
        <ele>26.84</ele>
        <time>2011-08-05T15:44:20Z</time>
      </trkpt>
      <trkpt lat="37.14104" lon="-8.53964">
        <ele>25.052</ele>
        <time>2011-08-05T15:44:32Z</time>
      </trkpt>
      <trkpt lat="37.14099" lon="-8.53959">
        <ele>24.248</ele>
        <time>2011-08-05T15:44:36Z</time>
      </trkpt>
      <trkpt lat="37.14091" lon="-8.53957">
        <ele>24.168</ele>
        <time>2011-08-05T15:44:38Z</time>
      </trkpt>
      <trkpt lat="37.14024" lon="-8.53949">
        <ele>24.755</ele>
        <time>2011-08-05T15:44:49Z</time>
      </trkpt>
      <trkpt lat="37.13965" lon="-8.53947">
        <ele>25.624</ele>
        <time>2011-08-05T15:45:01Z</time>
      </trkpt>
      <trkpt lat="37.13965" lon="-8.53947">
        <ele>26.034</ele>
        <time>2011-08-05T15:45:13Z</time>
      </trkpt>
      <trkpt lat="37.13965" lon="-8.53947">
        <ele>25.846</ele>
        <time>2011-08-05T15:45:35Z</time>
      </trkpt>
      <trkpt lat="37.13965" lon="-8.53947">
        <ele>25.701</ele>
        <time>2011-08-05T15:45:47Z</time>
      </trkpt>
      <trkpt lat="37.13933" lon="-8.5393">
        <ele>25.813</ele>
        <time>2011-08-05T15:45:56Z</time>
      </trkpt>
      <trkpt lat="37.13933" lon="-8.53879">
        <ele>26.572</ele>
        <time>2011-08-05T15:46:09Z</time>
      </trkpt>
      <trkpt lat="37.13933" lon="-8.53879">
        <ele>26.631</ele>
        <time>2011-08-05T15:46:10Z</time>
      </trkpt>
      <trkpt lat="37.13933" lon="-8.53869">
        <ele>26.629</ele>
        <time>2011-08-05T15:46:12Z</time>
      </trkpt>
      <trkpt lat="37.139" lon="-8.53867">
        <ele>26.623</ele>
        <time>2011-08-05T15:46:21Z</time>
      </trkpt>
      <trkpt lat="37.13882" lon="-8.53866">
        <ele>26.252</ele>
        <time>2011-08-05T15:46:25Z</time>
      </trkpt>
      <trkpt lat="37.13872" lon="-8.53865">
        <ele>25.915</ele>
        <time>2011-08-05T15:46:29Z</time>
      </trkpt>
      <trkpt lat="37.13872" lon="-8.53865">
        <ele>25.687</ele>
        <time>2011-08-05T15:46:33Z</time>
      </trkpt>
      <trkpt lat="37.13787" lon="-8.53861">
        <ele>25.222</ele>
        <time>2011-08-05T15:46:44Z</time>
      </trkpt>
      <trkpt lat="37.13772" lon="-8.53861">
        <ele>25.091</ele>
        <time>2011-08-05T15:46:46Z</time>
      </trkpt>
      <trkpt lat="37.13761" lon="-8.53869">
        <ele>25.207</ele>
        <time>2011-08-05T15:46:51Z</time>
      </trkpt>
      <trkpt lat="37.13754" lon="-8.539">
        <ele>24.814</ele>
        <time>2011-08-05T15:46:59Z</time>
      </trkpt>
      <trkpt lat="37.13749" lon="-8.53922">
        <ele>23.139</ele>
        <time>2011-08-05T15:47:05Z</time>
      </trkpt>
      <trkpt lat="37.13776" lon="-8.53927">
        <ele>20.804</ele>
        <time>2011-08-05T15:47:11Z</time>
      </trkpt>
      <trkpt lat="37.13804" lon="-8.53928">
        <ele>14.891</ele>
        <time>2011-08-05T15:47:22Z</time>
      </trkpt>
      <trkpt lat="37.13856" lon="-8.5393">
        <ele>13.094</ele>
        <time>2011-08-05T15:47:29Z</time>
      </trkpt>
      <trkpt lat="37.13893" lon="-8.5393">
        <ele>8.832</ele>
        <time>2011-08-05T15:47:41Z</time>
      </trkpt>
      <trkpt lat="37.13893" lon="-8.5393">
        <ele>5.724</ele>
        <time>2011-08-05T15:48:24Z</time>
      </trkpt>
      <trkpt lat="37.13893" lon="-8.5393">
        <ele>4.445</ele>
        <time>2011-08-05T15:48:56Z</time>
      </trkpt>
      <trkpt lat="37.13933" lon="-8.53913">
        <ele>4.903</ele>
        <time>2011-08-05T15:49:00Z</time>
      </trkpt>
      <trkpt lat="37.13933" lon="-8.53874">
        <ele>8.55</ele>
        <time>2011-08-05T15:49:09Z</time>
      </trkpt>
      <trkpt lat="37.13916" lon="-8.53868">
        <ele>11.262</ele>
        <time>2011-08-05T15:49:13Z</time>
      </trkpt>
      <trkpt lat="37.13882" lon="-8.53866">
        <ele>16.953</ele>
        <time>2011-08-05T15:49:23Z</time>
      </trkpt>
      <trkpt lat="37.13875" lon="-8.53853">
        <ele>23.263</ele>
        <time>2011-08-05T15:49:28Z</time>
      </trkpt>
      <trkpt lat="37.13893" lon="-8.53791">
        <ele>31.643</ele>
        <time>2011-08-05T15:49:44Z</time>
      </trkpt>
      <trkpt lat="37.13894" lon="-8.53749">
        <ele>27.607</ele>
        <time>2011-08-05T15:49:56Z</time>
      </trkpt>
      <trkpt lat="37.13896" lon="-8.53733">
        <ele>26.879</ele>
        <time>2011-08-05T15:50:02Z</time>
      </trkpt>
      <trkpt lat="37.13897" lon="-8.53723">
        <ele>26.654</ele>
        <time>2011-08-05T15:50:16Z</time>
      </trkpt>
      <trkpt lat="37.13897" lon="-8.53672">
        <ele>27.135</ele>
        <time>2011-08-05T15:50:27Z</time>
      </trkpt>
      <trkpt lat="37.13933" lon="-8.53655">
        <ele>29.514</ele>
        <time>2011-08-05T15:50:37Z</time>
      </trkpt>
      <trkpt lat="37.13933" lon="-8.53651">
        <ele>29.484</ele>
        <time>2011-08-05T15:50:39Z</time>
      </trkpt>
      <trkpt lat="37.13935" lon="-8.53597">
        <ele>32.824</ele>
        <time>2011-08-05T15:50:52Z</time>
      </trkpt>
      <trkpt lat="37.13937" lon="-8.53586">
        <ele>33.35</ele>
        <time>2011-08-05T15:50:55Z</time>
      </trkpt>
      <trkpt lat="37.13913" lon="-8.53574">
        <ele>34.542</ele>
        <time>2011-08-05T15:51:05Z</time>
      </trkpt>
      <trkpt lat="37.13904" lon="-8.5357">
        <ele>35.638</ele>
        <time>2011-08-05T15:51:09Z</time>
      </trkpt>
      <trkpt lat="37.13894" lon="-8.53565">
        <ele>37.455</ele>
        <time>2011-08-05T15:51:15Z</time>
      </trkpt>
      <trkpt lat="37.13872" lon="-8.53554">
        <ele>41.276</ele>
        <time>2011-08-05T15:51:26Z</time>
      </trkpt>
      <trkpt lat="37.13849" lon="-8.53539">
        <ele>42.679</ele>
        <time>2011-08-05T15:51:32Z</time>
      </trkpt>
      <trkpt lat="37.13856" lon="-8.53516">
        <ele>44.59</ele>
        <time>2011-08-05T15:51:44Z</time>
      </trkpt>
      <trkpt lat="37.13856" lon="-8.53516">
        <ele>43.308</ele>
        <time>2011-08-05T15:51:57Z</time>
      </trkpt>
      <trkpt lat="37.13856" lon="-8.53516">
        <ele>43.224</ele>
        <time>2011-08-05T15:51:58Z</time>
      </trkpt>
      <trkpt lat="37.13842" lon="-8.53507">
        <ele>42.905</ele>
        <time>2011-08-05T15:52:00Z</time>
      </trkpt>
      <trkpt lat="37.1384" lon="-8.53462">
        <ele>41.181</ele>
        <time>2011-08-05T15:52:13Z</time>
      </trkpt>
      <trkpt lat="37.13844" lon="-8.53401">
        <ele>39.484</ele>
        <time>2011-08-05T15:52:20Z</time>
      </trkpt>
      <trkpt lat="37.13893" lon="-8.53344">
        <ele>37.379</ele>
        <time>2011-08-05T15:52:31Z</time>
      </trkpt>
      <trkpt lat="37.13901" lon="-8.53334">
        <ele>37.628</ele>
        <time>2011-08-05T15:52:34Z</time>
      </trkpt>
      <trkpt lat="37.13911" lon="-8.53322">
        <ele>37.756</ele>
        <time>2011-08-05T15:52:43Z</time>
      </trkpt>
      <trkpt lat="37.13911" lon="-8.53322">
        <ele>35.292</ele>
        <time>2011-08-05T15:57:56Z</time>
      </trkpt>
      <trkpt lat="37.13924" lon="-8.53307">
        <ele>35.642</ele>
        <time>2011-08-05T15:58:04Z</time>
      </trkpt>
      <trkpt lat="37.13926" lon="-8.53305">
        <ele>35.323</ele>
        <time>2011-08-05T15:58:15Z</time>
      </trkpt>
      <trkpt lat="37.13926" lon="-8.53305">
        <ele>35.29</ele>
        <time>2011-08-05T15:58:18Z</time>
      </trkpt>
      <trkpt lat="37.13907" lon="-8.53327">
        <ele>35.646</ele>
        <time>2011-08-05T15:58:23Z</time>
      </trkpt>
      <trkpt lat="37.13875" lon="-8.53364">
        <ele>35.544</ele>
        <time>2011-08-05T15:58:29Z</time>
      </trkpt>
      <trkpt lat="37.13822" lon="-8.53427">
        <ele>36.59</ele>
        <time>2011-08-05T15:58:39Z</time>
      </trkpt>
      <trkpt lat="37.1381" lon="-8.53442">
        <ele>31.556</ele>
        <time>2011-08-05T15:58:48Z</time>
      </trkpt>
      <trkpt lat="37.13804" lon="-8.53449">
        <ele>29.57</ele>
        <time>2011-08-05T15:59:03Z</time>
      </trkpt>
      <trkpt lat="37.13804" lon="-8.53449">
        <ele>27.956</ele>
        <time>2011-08-05T15:59:12Z</time>
      </trkpt>
      <trkpt lat="37.13827" lon="-8.53539">
        <ele>24.799</ele>
        <time>2011-08-05T15:59:21Z</time>
      </trkpt>
      <trkpt lat="37.13826" lon="-8.53541">
        <ele>24.544</ele>
        <time>2011-08-05T15:59:28Z</time>
      </trkpt>
      <trkpt lat="37.13783" lon="-8.53545">
        <ele>22.77</ele>
        <time>2011-08-05T15:59:33Z</time>
      </trkpt>
      <trkpt lat="37.13817" lon="-8.53563">
        <ele>21.417</ele>
        <time>2011-08-05T15:59:44Z</time>
      </trkpt>
      <trkpt lat="37.1382" lon="-8.53567">
        <ele>21.333</ele>
        <time>2011-08-05T15:59:46Z</time>
      </trkpt>
      <trkpt lat="37.13813" lon="-8.53602">
        <ele>20.31</ele>
        <time>2011-08-05T15:59:54Z</time>
      </trkpt>
      <trkpt lat="37.13812" lon="-8.53606">
        <ele>20.123</ele>
        <time>2011-08-05T15:59:56Z</time>
      </trkpt>
      <trkpt lat="37.13808" lon="-8.53619">
        <ele>19.092</ele>
        <time>2011-08-05T16:00:01Z</time>
      </trkpt>
      <trkpt lat="37.13805" lon="-8.53631">
        <ele>18.586</ele>
        <time>2011-08-05T16:00:03Z</time>
      </trkpt>
      <trkpt lat="37.13796" lon="-8.53673">
        <ele>15.619</ele>
        <time>2011-08-05T16:00:10Z</time>
      </trkpt>
      <trkpt lat="37.13783" lon="-8.53736">
        <ele>12.943</ele>
        <time>2011-08-05T16:00:21Z</time>
      </trkpt>
      <trkpt lat="37.13773" lon="-8.53799">
        <ele>12.177</ele>
        <time>2011-08-05T16:00:31Z</time>
      </trkpt>
      <trkpt lat="37.13765" lon="-8.53858">
        <ele>12.628</ele>
        <time>2011-08-05T16:00:43Z</time>
      </trkpt>
      <trkpt lat="37.13757" lon="-8.53886">
        <ele>12.573</ele>
        <time>2011-08-05T16:00:49Z</time>
      </trkpt>
      <trkpt lat="37.13747" lon="-8.53932">
        <ele>13.347</ele>
        <time>2011-08-05T16:00:57Z</time>
      </trkpt>
      <trkpt lat="37.13735" lon="-8.54009">
        <ele>14.973</ele>
        <time>2011-08-05T16:01:06Z</time>
      </trkpt>
      <trkpt lat="37.13711" lon="-8.54026">
        <ele>16.232</ele>
        <time>2011-08-05T16:01:13Z</time>
      </trkpt>
      <trkpt lat="37.13651" lon="-8.54005">
        <ele>15.791</ele>
        <time>2011-08-05T16:01:24Z</time>
      </trkpt>
      <trkpt lat="37.13654" lon="-8.53985">
        <ele>13.701</ele>
        <time>2011-08-05T16:01:29Z</time>
      </trkpt>
      <trkpt lat="37.13628" lon="-8.53939">
        <ele>14.808</ele>
        <time>2011-08-05T16:01:36Z</time>
      </trkpt>
      <trkpt lat="37.13541" lon="-8.53919">
        <ele>14.798</ele>
        <time>2011-08-05T16:01:48Z</time>
      </trkpt>
      <trkpt lat="37.13469" lon="-8.53903">
        <ele>17.274</ele>
        <time>2011-08-05T16:01:58Z</time>
      </trkpt>
      <trkpt lat="37.13428" lon="-8.53894">
        <ele>20.156</ele>
        <time>2011-08-05T16:02:04Z</time>
      </trkpt>
      <trkpt lat="37.13409" lon="-8.5389">
        <ele>25.143</ele>
        <time>2011-08-05T16:02:13Z</time>
      </trkpt>
      <trkpt lat="37.13394" lon="-8.53887">
        <ele>26.758</ele>
        <time>2011-08-05T16:02:21Z</time>
      </trkpt>
      <trkpt lat="37.13394" lon="-8.53887">
        <ele>29.521</ele>
        <time>2011-08-05T16:02:39Z</time>
      </trkpt>
      <trkpt lat="37.13385" lon="-8.53834">
        <ele>28.25</ele>
        <time>2011-08-05T16:02:47Z</time>
      </trkpt>
      <trkpt lat="37.13377" lon="-8.53768">
        <ele>27.405</ele>
        <time>2011-08-05T16:02:55Z</time>
      </trkpt>
      <trkpt lat="37.13373" lon="-8.53738">
        <ele>25.319</ele>
        <time>2011-08-05T16:02:59Z</time>
      </trkpt>
      <trkpt lat="37.1337" lon="-8.53702">
        <ele>23.785</ele>
        <time>2011-08-05T16:03:07Z</time>
      </trkpt>
      <trkpt lat="37.1337" lon="-8.53651">
        <ele>22.632</ele>
        <time>2011-08-05T16:03:13Z</time>
      </trkpt>
      <trkpt lat="37.13327" lon="-8.53693">
        <ele>20.417</ele>
        <time>2011-08-05T16:03:20Z</time>
      </trkpt>
      <trkpt lat="37.13259" lon="-8.53678">
        <ele>21.252</ele>
        <time>2011-08-05T16:03:31Z</time>
      </trkpt>
      <trkpt lat="37.13219" lon="-8.53668">
        <ele>21.723</ele>
        <time>2011-08-05T16:03:37Z</time>
      </trkpt>
      <trkpt lat="37.1314" lon="-8.53613">
        <ele>23.272</ele>
        <time>2011-08-05T16:03:46Z</time>
      </trkpt>
      <trkpt lat="37.13147" lon="-8.53582">
        <ele>23.112</ele>
        <time>2011-08-05T16:03:50Z</time>
      </trkpt>
      <trkpt lat="37.13105" lon="-8.53557">
        <ele>21.551</ele>
        <time>2011-08-05T16:03:54Z</time>
      </trkpt>
      <trkpt lat="37.13092" lon="-8.53532">
        <ele>20.131</ele>
        <time>2011-08-05T16:03:57Z</time>
      </trkpt>
      <trkpt lat="37.13058" lon="-8.53477">
        <ele>17.971</ele>
        <time>2011-08-05T16:04:06Z</time>
      </trkpt>
      <trkpt lat="37.1304" lon="-8.53454">
        <ele>17.74</ele>
        <time>2011-08-05T16:04:09Z</time>
      </trkpt>
      <trkpt lat="37.1301" lon="-8.53429">
        <ele>17.945</ele>
        <time>2011-08-05T16:04:15Z</time>
      </trkpt>
      <trkpt lat="37.12971" lon="-8.53397">
        <ele>17.394</ele>
        <time>2011-08-05T16:04:23Z</time>
      </trkpt>
      <trkpt lat="37.12948" lon="-8.53369">
        <ele>17.151</ele>
        <time>2011-08-05T16:04:27Z</time>
      </trkpt>
      <trkpt lat="37.12913" lon="-8.53347">
        <ele>17.782</ele>
        <time>2011-08-05T16:04:32Z</time>
      </trkpt>
      <trkpt lat="37.12891" lon="-8.5335">
        <ele>18.202</ele>
        <time>2011-08-05T16:04:34Z</time>
      </trkpt>
      <trkpt lat="37.12851" lon="-8.53355">
        <ele>19.173</ele>
        <time>2011-08-05T16:04:38Z</time>
      </trkpt>
      <trkpt lat="37.12801" lon="-8.53329">
        <ele>19.017</ele>
        <time>2011-08-05T16:04:44Z</time>
      </trkpt>
      <trkpt lat="37.12766" lon="-8.53355">
        <ele>17.872</ele>
        <time>2011-08-05T16:04:49Z</time>
      </trkpt>
      <trkpt lat="37.1269" lon="-8.5343">
        <ele>15.795</ele>
        <time>2011-08-05T16:04:57Z</time>
      </trkpt>
      <trkpt lat="37.12578" lon="-8.53452">
        <ele>14.207</ele>
        <time>2011-08-05T16:05:06Z</time>
      </trkpt>
      <trkpt lat="37.12459" lon="-8.53466">
        <ele>13.587</ele>
        <time>2011-08-05T16:05:15Z</time>
      </trkpt>
      <trkpt lat="37.12403" lon="-8.53475">
        <ele>13.185</ele>
        <time>2011-08-05T16:05:20Z</time>
      </trkpt>
      <trkpt lat="37.12311" lon="-8.53503">
        <ele>12.417</ele>
        <time>2011-08-05T16:05:30Z</time>
      </trkpt>
      <trkpt lat="37.12236" lon="-8.53521">
        <ele>12.857</ele>
        <time>2011-08-05T16:05:41Z</time>
      </trkpt>
      <trkpt lat="37.12231" lon="-8.53522">
        <ele>12.919</ele>
        <time>2011-08-05T16:05:42Z</time>
      </trkpt>
      <trkpt lat="37.12219" lon="-8.53524">
        <ele>16.307</ele>
        <time>2011-08-05T16:05:45Z</time>
      </trkpt>
      <trkpt lat="37.12201" lon="-8.53568">
        <ele>13.74</ele>
        <time>2011-08-05T16:05:50Z</time>
      </trkpt>
      <trkpt lat="37.12158" lon="-8.53576">
        <ele>16.362</ele>
        <time>2011-08-05T16:05:57Z</time>
      </trkpt>
      <trkpt lat="37.12148" lon="-8.53563">
        <ele>16.49</ele>
        <time>2011-08-05T16:06:00Z</time>
      </trkpt>
      <trkpt lat="37.12104" lon="-8.53562">
        <ele>19.844</ele>
        <time>2011-08-05T16:06:06Z</time>
      </trkpt>
      <trkpt lat="37.12028" lon="-8.53589">
        <ele>29.274</ele>
        <time>2011-08-05T16:06:21Z</time>
      </trkpt>
      <trkpt lat="37.12008" lon="-8.53596">
        <ele>30.313</ele>
        <time>2011-08-05T16:06:25Z</time>
      </trkpt>
      <trkpt lat="37.11968" lon="-8.5361">
        <ele>35.816</ele>
        <time>2011-08-05T16:06:34Z</time>
      </trkpt>
      <trkpt lat="37.11935" lon="-8.53621">
        <ele>41.408</ele>
        <time>2011-08-05T16:06:44Z</time>
      </trkpt>
      <trkpt lat="37.11915" lon="-8.53628">
        <ele>45.887</ele>
        <time>2011-08-05T16:06:54Z</time>
      </trkpt>
      <trkpt lat="37.11905" lon="-8.53631">
        <ele>44.392</ele>
        <time>2011-08-05T16:06:59Z</time>
      </trkpt>
      <trkpt lat="37.11888" lon="-8.53585">
        <ele>36.688</ele>
        <time>2011-08-05T16:07:14Z</time>
      </trkpt>
      <trkpt lat="37.11883" lon="-8.53562">
        <ele>35.847</ele>
        <time>2011-08-05T16:07:25Z</time>
      </trkpt>
      <trkpt lat="37.11868" lon="-8.53515">
        <ele>35.675</ele>
        <time>2011-08-05T16:07:35Z</time>
      </trkpt>
      <trkpt lat="37.11848" lon="-8.53453">
        <ele>34.359</ele>
        <time>2011-08-05T16:07:45Z</time>
      </trkpt>
      <trkpt lat="37.11838" lon="-8.53423">
        <ele>33.847</ele>
        <time>2011-08-05T16:07:49Z</time>
      </trkpt>
      <trkpt lat="37.11822" lon="-8.53375">
        <ele>31.749</ele>
        <time>2011-08-05T16:07:56Z</time>
      </trkpt>
      <trkpt lat="37.11816" lon="-8.53357">
        <ele>30.982</ele>
        <time>2011-08-05T16:07:59Z</time>
      </trkpt>
      <trkpt lat="37.11783" lon="-8.53253">
        <ele>31.764</ele>
        <time>2011-08-05T16:08:14Z</time>
      </trkpt>
      <trkpt lat="37.11741" lon="-8.53129">
        <ele>32.234</ele>
        <time>2011-08-05T16:08:33Z</time>
      </trkpt>
      <trkpt lat="37.11711" lon="-8.53043">
        <ele>32.382</ele>
        <time>2011-08-05T16:08:47Z</time>
      </trkpt>
      <trkpt lat="37.1169" lon="-8.52996">
        <ele>30.358</ele>
        <time>2011-08-05T16:08:58Z</time>
      </trkpt>
      <trkpt lat="37.11695" lon="-8.52988">
        <ele>30.357</ele>
        <time>2011-08-05T16:08:59Z</time>
      </trkpt>
      <trkpt lat="37.11713" lon="-8.52985">
        <ele>30.028</ele>
        <time>2011-08-05T16:09:06Z</time>
      </trkpt>
      <trkpt lat="37.11729" lon="-8.52999">
        <ele>30.532</ele>
        <time>2011-08-05T16:09:11Z</time>
      </trkpt>
      <trkpt lat="37.11738" lon="-8.53005">
        <ele>30.562</ele>
        <time>2011-08-05T16:09:13Z</time>
      </trkpt>
      <trkpt lat="37.11787" lon="-8.53041">
        <ele>32.599</ele>
        <time>2011-08-05T16:09:23Z</time>
      </trkpt>
      <trkpt lat="37.11824" lon="-8.53103">
        <ele>33.453</ele>
        <time>2011-08-05T16:09:37Z</time>
      </trkpt>
      <trkpt lat="37.1183" lon="-8.53113">
        <ele>33.274</ele>
        <time>2011-08-05T16:09:39Z</time>
      </trkpt>
      <trkpt lat="37.11838" lon="-8.53127">
        <ele>35.387</ele>
        <time>2011-08-05T16:09:44Z</time>
      </trkpt>
      <trkpt lat="37.11831" lon="-8.5315">
        <ele>34.066</ele>
        <time>2011-08-05T16:09:47Z</time>
      </trkpt>
      <trkpt lat="37.11834" lon="-8.53203">
        <ele>28.015</ele>
        <time>2011-08-05T16:09:58Z</time>
      </trkpt>
      <trkpt lat="37.11857" lon="-8.53274">
        <ele>21.774</ele>
        <time>2011-08-05T16:10:11Z</time>
      </trkpt>
      <trkpt lat="37.11869" lon="-8.533">
        <ele>18.078</ele>
        <time>2011-08-05T16:10:21Z</time>
      </trkpt>
      <trkpt lat="37.11877" lon="-8.5332">
        <ele>11.551</ele>
        <time>2011-08-05T16:10:34Z</time>
      </trkpt>
      <trkpt lat="37.11896" lon="-8.53388">
        <ele>12.529</ele>
        <time>2011-08-05T16:10:46Z</time>
      </trkpt>
      <trkpt lat="37.11925" lon="-8.53445">
        <ele>13.638</ele>
        <time>2011-08-05T16:11:00Z</time>
      </trkpt>
      <trkpt lat="37.11932" lon="-8.5346">
        <ele>14.274</ele>
        <time>2011-08-05T16:11:04Z</time>
      </trkpt>
      <trkpt lat="37.1194" lon="-8.53496">
        <ele>18.229</ele>
        <time>2011-08-05T16:11:15Z</time>
      </trkpt>
      <trkpt lat="37.11941" lon="-8.535">
        <ele>20.59</ele>
        <time>2011-08-05T16:11:29Z</time>
      </trkpt>
    </trkseg>
  </trk>
</gpx>